KBFL/BFL METAR and TAF weather

Enter ICAO airport designator
Station Type Date Time Source
KBFL METAR 2021/09/25 01:54 UTC NOAA

KBFL 250154Z 00000KT 3SM HZ FU CLR 27/09 A2987 RMK AO2 TWR VIS 4 SLP109 T02670089


Station Type Date Time Source
KBFL Decoded METAR 2021/09/25 01:54 UTC NOAA

BAKERSFIELD MEADOWS FIELD, CA, United States (KBFL) 35-26N 119-03W 151M
Sep 24, 2021 - 09:54 PM EDT / 2021.09.25 0154 UTC
Wind: Calm:0
Visibility: 3 mile(s):0
Sky conditions: clear
Weather: haze; smoke
Temperature: 80.1 F (26.7 C)
Dew Point: 48.0 F (8.9 C)
Relative Humidity: 32%
Pressure (altimeter): 29.87 in. Hg (1011 hPa)
ob: KBFL 250154Z 00000KT 3SM HZ FU CLR 27/09 A2987 RMK AO2 TWR VIS 4 SLP109 T02670089
cycle: 2

Station Type Date Time Source
KBFL TAF 2021/09/24 22:33 UTC NOAA

TAF
AMD KBFL 242130Z 2422/2518 VRB04KT 4SM HZ FU SCT200
TEMPO 2422/2502 2SM HZ FU
FM250300 VRB04KT 6SM HZ FU SCT200

Example: see airport list